sensor_id;sensor_type;location;lat;lon;timestamp;temperature;humidity
21108;DHT22;10712;52.944;9.098;2023-06-22T00:02:17;18.20;82.30
21108;DHT22;10712;52.944;9.098;2023-06-22T00:04:43;18.20;82.50
21108;DHT22;10712;52.944;9.098;2023-06-22T00:07:09;18.20;82.40
21108;DHT22;10712;52.944;9.098;2023-06-22T00:09:35;18.10;82.60
21108;DHT22;10712;52.944;9.098;2023-06-22T00:12:01;18.10;82.80
21108;DHT22;10712;52.944;9.098;2023-06-22T00:14:27;18.00;83.10
21108;DHT22;10712;52.944;9.098;2023-06-22T00:16:53;18.00;83.20
21108;DHT22;10712;52.944;9.098;2023-06-22T00:19:23;18.00;83.30
21108;DHT22;10712;52.944;9.098;2023-06-22T00:21:51;17.90;83.40
21108;DHT22;10712;52.944;9.098;2023-06-22T00:24:19;17.90;83.60
21108;DHT22;10712;52.944;9.098;2023-06-22T00:26:45;17.90;83.70
21108;DHT22;10712;52.944;9.098;2023-06-22T00:29:12;17.90;83.70
21108;DHT22;10712;52.944;9.098;2023-06-22T00:31:38;17.80;83.80
21108;DHT22;10712;52.944;9.098;2023-06-22T00:34:03;17.80;84.20
21108;DHT22;10712;52.944;9.098;2023-06-22T00:36:33;17.90;84.10
21108;DHT22;10712;52.944;9.098;2023-06-22T00:38:58;17.80;84.00
21108;DHT22;10712;52.944;9.098;2023-06-22T00:41:24;17.80;84.00
21108;DHT22;10712;52.944;9.098;2023-06-22T00:43:54;17.80;84.20
21108;DHT22;10712;52.944;9.098;2023-06-22T00:46:21;17.90;84.40
21108;DHT22;10712;52.944;9.098;2023-06-22T00:48:49;17.90;84.30
21108;DHT22;10712;52.944;9.098;2023-06-22T00:51:17;17.90;84.20
21108;DHT22;10712;52.944;9.098;2023-06-22T00:53:44;18.00;84.10
21108;DHT22;10712;52.944;9.098;2023-06-22T00:56:10;18.00;83.70
21108;DHT22;10712;52.944;9.098;2023-06-22T00:58:38;18.00;83.60
21108;DHT22;10712;52.944;9.098;2023-06-22T01:01:07;17.90;83.50
21108;DHT22;10712;52.944;9.098;2023-06-22T01:03:33;17.90;83.50
21108;DHT22;10712;52.944;9.098;2023-06-22T01:06:05;17.80;83.60
21108;DHT22;10712;52.944;9.098;2023-06-22T01:08:42;17.80;83.90
21108;DHT22;10712;52.944;9.098;2023-06-22T01:11:42;17.80;83.50
21108;DHT22;10712;52.944;9.098;2023-06-22T01:14:16;17.70;83.70
21108;DHT22;10712;52.944;9.098;2023-06-22T01:16:51;17.60;84.30
21108;DHT22;10712;52.944;9.098;2023-06-22T01:19:45;17.60;84.50
21108;DHT22;10712;52.944;9.098;2023-06-22T01:22:18;17.60;84.40
21108;DHT22;10712;52.944;9.098;2023-06-22T01:25:07;17.60;84.40
21108;DHT22;10712;52.944;9.098;2023-06-22T01:27:56;17.60;84.10
21108;DHT22;10712;52.944;9.098;2023-06-22T01:30:30;17.60;83.70
21108;DHT22;10712;52.944;9.098;2023-06-22T01:33:01;17.50;84.10
21108;DHT22;10712;52.944;9.098;2023-06-22T01:35:30;17.50;84.10
21108;DHT22;10712;52.944;9.098;2023-06-22T01:37:59;17.50;84.10
21108;DHT22;10712;52.944;9.098;2023-06-22T01:40:26;17.50;83.90
21108;DHT22;10712;52.944;9.098;2023-06-22T01:42:53;17.50;83.90
21108;DHT22;10712;52.944;9.098;2023-06-22T01:45:19;17.50;83.90
21108;DHT22;10712;52.944;9.098;2023-06-22T01:47:45;17.50;83.50
21108;DHT22;10712;52.944;9.098;2023-06-22T01:50:12;17.40;83.40
21108;DHT22;10712;52.944;9.098;2023-06-22T01:52:38;17.40;83.60
21108;DHT22;10712;52.944;9.098;2023-06-22T01:55:04;17.30;83.70
21108;DHT22;10712;52.944;9.098;2023-06-22T01:57:31;17.30;84.10
21108;DHT22;10712;52.944;9.098;2023-06-22T02:00:07;17.30;84.40
21108;DHT22;10712;52.944;9.098;2023-06-22T02:02:59;17.30;84.40
21108;DHT22;10712;52.944;9.098;2023-06-22T02:05:50;17.30;84.20
21108;DHT22;10712;52.944;9.098;2023-06-22T02:08:34;17.30;84.10
21108;DHT22;10712;52.944;9.098;2023-06-22T02:11:09;17.30;84.10
21108;DHT22;10712;52.944;9.098;2023-06-22T02:13:38;17.30;84.10
21108;DHT22;10712;52.944;9.098;2023-06-22T02:16:10;17.30;83.80
21108;DHT22;10712;52.944;9.098;2023-06-22T02:18:46;17.30;83.40
21108;DHT22;10712;52.944;9.098;2023-06-22T02:21:13;17.30;83.30
21108;DHT22;10712;52.944;9.098;2023-06-22T02:23:39;17.30;83.70
21108;DHT22;10712;52.944;9.098;2023-06-22T02:26:04;17.20;83.70
21108;DHT22;10712;52.944;9.098;2023-06-22T02:28:30;17.20;83.70
21108;DHT22;10712;52.944;9.098;2023-06-22T02:30:56;17.20;83.50
21108;DHT22;10712;52.944;9.098;2023-06-22T02:33:22;17.20;83.80
21108;DHT22;10712;52.944;9.098;2023-06-22T02:35:48;17.20;83.80
21108;DHT22;10712;52.944;9.098;2023-06-22T02:38:15;17.20;83.90
21108;DHT22;10712;52.944;9.098;2023-06-22T02:40:40;17.20;83.90
21108;DHT22;10712;52.944;9.098;2023-06-22T02:43:06;17.20;83.80
21108;DHT22;10712;52.944;9.098;2023-06-22T02:45:32;17.20;83.70
21108;DHT22;10712;52.944;9.098;2023-06-22T02:47:58;17.10;83.60
21108;DHT22;10712;52.944;9.098;2023-06-22T02:50:24;17.10;83.80
21108;DHT22;10712;52.944;9.098;2023-06-22T02:52:51;17.10;83.90
21108;DHT22;10712;52.944;9.098;2023-06-22T02:55:17;17.10;84.00
21108;DHT22;10712;52.944;9.098;2023-06-22T02:57:50;17.10;84.00
21108;DHT22;10712;52.944;9.098;2023-06-22T03:00:19;17.10;83.70
21108;DHT22;10712;52.944;9.098;2023-06-22T03:02:47;17.10;83.70
21108;DHT22;10712;52.944;9.098;2023-06-22T03:05:15;17.10;83.80
21108;DHT22;10712;52.944;9.098;2023-06-22T03:07:44;17.00;83.90
21108;DHT22;10712;52.944;9.098;2023-06-22T03:10:12;17.00;83.80
21108;DHT22;10712;52.944;9.098;2023-06-22T03:12:40;17.00;83.70
21108;DHT22;10712;52.944;9.098;2023-06-22T03:15:12;16.90;83.50
21108;DHT22;10712;52.944;9.098;2023-06-22T03:17:39;16.90;83.70
21108;DHT22;10712;52.944;9.098;2023-06-22T03:20:08;16.80;84.30
21108;DHT22;10712;52.944;9.098;2023-06-22T03:22:39;16.70;84.60
21108;DHT22;10712;52.944;9.098;2023-06-22T03:25:10;16.70;84.60
21108;DHT22;10712;52.944;9.098;2023-06-22T03:27:37;16.70;84.50
21108;DHT22;10712;52.944;9.098;2023-06-22T03:30:03;16.60;84.70
21108;DHT22;10712;52.944;9.098;2023-06-22T03:32:31;16.50;85.10
21108;DHT22;10712;52.944;9.098;2023-06-22T03:34:58;16.50;85.60
21108;DHT22;10712;52.944;9.098;2023-06-22T03:37:25;16.50;85.90
21108;DHT22;10712;52.944;9.098;2023-06-22T03:39:52;16.60;86.00
21108;DHT22;10712;52.944;9.098;2023-06-22T03:42:19;16.60;85.90
21108;DHT22;10712;52.944;9.098;2023-06-22T03:44:45;16.60;85.70
21108;DHT22;10712;52.944;9.098;2023-06-22T03:47:12;16.60;85.70
21108;DHT22;10712;52.944;9.098;2023-06-22T03:49:38;16.60;85.80
21108;DHT22;10712;52.944;9.098;2023-06-22T03:52:04;16.50;86.00
21108;DHT22;10712;52.944;9.098;2023-06-22T03:54:31;16.60;86.30
21108;DHT22;10712;52.944;9.098;2023-06-22T03:56:58;16.60;86.50
21108;DHT22;10712;52.944;9.098;2023-06-22T03:59:24;16.60;86.40
21108;DHT22;10712;52.944;9.098;2023-06-22T04:01:50;16.60;86.20
21108;DHT22;10712;52.944;9.098;2023-06-22T04:04:19;16.60;86.40
21108;DHT22;10712;52.944;9.098;2023-06-22T04:06:45;16.60;86.60
21108;DHT22;10712;52.944;9.098;2023-06-22T04:09:11;16.60;86.80
21108;DHT22;10712;52.944;9.098;2023-06-22T04:11:37;16.70;86.80
21108;DHT22;10712;52.944;9.098;2023-06-22T04:14:03;16.70;86.80
21108;DHT22;10712;52.944;9.098;2023-06-22T04:16:29;16.70;86.80
21108;DHT22;10712;52.944;9.098;2023-06-22T04:18:54;16.70;86.90
21108;DHT22;10712;52.944;9.098;2023-06-22T04:21:20;16.80;86.90
21108;DHT22;10712;52.944;9.098;2023-06-22T04:23:47;16.80;86.90
21108;DHT22;10712;52.944;9.098;2023-06-22T04:26:13;16.90;87.00
21108;DHT22;10712;52.944;9.098;2023-06-22T04:28:42;16.90;86.90
21108;DHT22;10712;52.944;9.098;2023-06-22T04:31:07;17.00;86.90
21108;DHT22;10712;52.944;9.098;2023-06-22T04:33:33;17.00;86.80
21108;DHT22;10712;52.944;9.098;2023-06-22T04:35:59;17.00;86.90
21108;DHT22;10712;52.944;9.098;2023-06-22T04:38:29;17.10;87.10
21108;DHT22;10712;52.944;9.098;2023-06-22T04:40:58;17.10;87.10
21108;DHT22;10712;52.944;9.098;2023-06-22T04:43:26;17.10;87.10
21108;DHT22;10712;52.944;9.098;2023-06-22T04:45:56;17.10;87.20
21108;DHT22;10712;52.944;9.098;2023-06-22T04:48:29;17.10;87.20
21108;DHT22;10712;52.944;9.098;2023-06-22T04:51:02;17.10;87.10
21108;DHT22;10712;52.944;9.098;2023-06-22T04:53:30;17.10;87.20
21108;DHT22;10712;52.944;9.098;2023-06-22T04:55:57;17.10;87.20
21108;DHT22;10712;52.944;9.098;2023-06-22T04:58:23;17.10;87.30
21108;DHT22;10712;52.944;9.098;2023-06-22T05:00:52;17.20;87.30
21108;DHT22;10712;52.944;9.098;2023-06-22T05:03:18;17.20;87.40
21108;DHT22;10712;52.944;9.098;2023-06-22T05:05:44;17.20;87.50
21108;DHT22;10712;52.944;9.098;2023-06-22T05:08:10;17.30;87.60
21108;DHT22;10712;52.944;9.098;2023-06-22T05:10:35;17.30;87.70
21108;DHT22;10712;52.944;9.098;2023-06-22T05:13:01;17.30;87.90
21108;DHT22;10712;52.944;9.098;2023-06-22T05:15:27;17.40;87.80
21108;DHT22;10712;52.944;9.098;2023-06-22T05:17:56;17.40;87.80
21108;DHT22;10712;52.944;9.098;2023-06-22T05:20:21;17.50;87.60
21108;DHT22;10712;52.944;9.098;2023-06-22T05:22:47;17.50;87.60
21108;DHT22;10712;52.944;9.098;2023-06-22T05:25:13;17.50;87.60
21108;DHT22;10712;52.944;9.098;2023-06-22T05:27:39;17.60;87.40
21108;DHT22;10712;52.944;9.098;2023-06-22T05:30:06;17.60;87.20
21108;DHT22;10712;52.944;9.098;2023-06-22T05:32:33;17.70;87.10
21108;DHT22;10712;52.944;9.098;2023-06-22T05:34:59;17.80;86.90
21108;DHT22;10712;52.944;9.098;2023-06-22T05:37:25;17.90;86.90
21108;DHT22;10712;52.944;9.098;2023-06-22T05:39:51;18.00;86.80
21108;DHT22;10712;52.944;9.098;2023-06-22T05:42:17;18.10;86.70
21108;DHT22;10712;52.944;9.098;2023-06-22T05:44:43;18.20;86.50
21108;DHT22;10712;52.944;9.098;2023-06-22T05:47:09;18.30;86.40
21108;DHT22;10712;52.944;9.098;2023-06-22T05:49:35;18.40;86.20
21108;DHT22;10712;52.944;9.098;2023-06-22T05:52:00;18.40;86.00
21108;DHT22;10712;52.944;9.098;2023-06-22T05:54:29;18.50;85.60
21108;DHT22;10712;52.944;9.098;2023-06-22T05:56:55;18.60;85.20
21108;DHT22;10712;52.944;9.098;2023-06-22T05:59:21;18.60;85.00
21108;DHT22;10712;52.944;9.098;2023-06-22T06:01:47;18.70;84.70
21108;DHT22;10712;52.944;9.098;2023-06-22T06:04:18;18.80;84.50
21108;DHT22;10712;52.944;9.098;2023-06-22T06:06:44;18.90;84.20
21108;DHT22;10712;52.944;9.098;2023-06-22T06:09:13;18.90;84.00
21108;DHT22;10712;52.944;9.098;2023-06-22T06:11:39;19.00;83.70
21108;DHT22;10712;52.944;9.098;2023-06-22T06:14:05;19.10;83.50
21108;DHT22;10712;52.944;9.098;2023-06-22T06:16:32;19.20;83.40
21108;DHT22;10712;52.944;9.098;2023-06-22T06:18:57;19.20;83.30
21108;DHT22;10712;52.944;9.098;2023-06-22T06:21:24;19.30;83.10
21108;DHT22;10712;52.944;9.098;2023-06-22T06:23:49;19.40;82.90
21108;DHT22;10712;52.944;9.098;2023-06-22T06:26:15;19.50;82.40
21108;DHT22;10712;52.944;9.098;2023-06-22T06:28:53;19.70;82.30
21108;DHT22;10712;52.944;9.098;2023-06-22T06:31:20;19.80;82.00
21108;DHT22;10712;52.944;9.098;2023-06-22T06:33:46;19.90;81.90
21108;DHT22;10712;52.944;9.098;2023-06-22T06:36:12;19.90;81.70
21108;DHT22;10712;52.944;9.098;2023-06-22T06:38:37;20.10;81.50
21108;DHT22;10712;52.944;9.098;2023-06-22T06:41:03;20.10;80.90
21108;DHT22;10712;52.944;9.098;2023-06-22T06:43:29;20.20;80.30
21108;DHT22;10712;52.944;9.098;2023-06-22T06:45:55;20.30;79.90
21108;DHT22;10712;52.944;9.098;2023-06-22T06:48:20;20.30;79.50
21108;DHT22;10712;52.944;9.098;2023-06-22T06:50:46;20.40;79.30
21108;DHT22;10712;52.944;9.098;2023-06-22T06:53:12;20.40;78.90
21108;DHT22;10712;52.944;9.098;2023-06-22T06:55:38;20.50;78.80
21108;DHT22;10712;52.944;9.098;2023-06-22T06:58:04;20.60;78.50
21108;DHT22;10712;52.944;9.098;2023-06-22T07:00:33;20.60;78.10
21108;DHT22;10712;52.944;9.098;2023-06-22T07:03:01;20.70;77.90
21108;DHT22;10712;52.944;9.098;2023-06-22T07:05:27;20.80;77.70
21108;DHT22;10712;52.944;9.098;2023-06-22T07:07:52;20.80;77.70
21108;DHT22;10712;52.944;9.098;2023-06-22T07:10:18;20.90;77.20
21108;DHT22;10712;52.944;9.098;2023-06-22T07:12:44;21.00;76.80
21108;DHT22;10712;52.944;9.098;2023-06-22T07:15:10;21.00;76.50
21108;DHT22;10712;52.944;9.098;2023-06-22T07:17:38;21.10;76.10
21108;DHT22;10712;52.944;9.098;2023-06-22T07:20:07;21.20;76.10
21108;DHT22;10712;52.944;9.098;2023-06-22T07:22:36;21.30;75.80
21108;DHT22;10712;52.944;9.098;2023-06-22T07:25:03;21.40;75.20
21108;DHT22;10712;52.944;9.098;2023-06-22T07:27:38;21.40;74.90
21108;DHT22;10712;52.944;9.098;2023-06-22T07:30:08;21.50;73.90
21108;DHT22;10712;52.944;9.098;2023-06-22T07:32:35;21.60;74.00
21108;DHT22;10712;52.944;9.098;2023-06-22T07:35:01;21.60;73.90
21108;DHT22;10712;52.944;9.098;2023-06-22T07:37:28;21.70;73.90
21108;DHT22;10712;52.944;9.098;2023-06-22T07:39:55;21.80;73.90
21108;DHT22;10712;52.944;9.098;2023-06-22T07:42:25;21.90;73.10
21108;DHT22;10712;52.944;9.098;2023-06-22T07:44:51;22.00;72.60
21108;DHT22;10712;52.944;9.098;2023-06-22T07:47:17;22.10;72.00
21108;DHT22;10712;52.944;9.098;2023-06-22T07:49:46;22.10;71.30
21108;DHT22;10712;52.944;9.098;2023-06-22T07:52:12;22.20;71.30
21108;DHT22;10712;52.944;9.098;2023-06-22T07:54:38;22.30;71.20
21108;DHT22;10712;52.944;9.098;2023-06-22T07:57:04;22.30;71.40
21108;DHT22;10712;52.944;9.098;2023-06-22T07:59:30;22.40;70.90
21108;DHT22;10712;52.944;9.098;2023-06-22T08:01:56;22.50;70.40
21108;DHT22;10712;52.944;9.098;2023-06-22T08:04:22;22.50;70.00
21108;DHT22;10712;52.944;9.098;2023-06-22T08:06:47;22.60;69.60
21108;DHT22;10712;52.944;9.098;2023-06-22T08:09:14;22.70;69.60
21108;DHT22;10712;52.944;9.098;2023-06-22T08:11:40;22.80;69.60
21108;DHT22;10712;52.944;9.098;2023-06-22T08:14:06;22.80;69.00
21108;DHT22;10712;52.944;9.098;2023-06-22T08:16:32;22.90;68.40
21108;DHT22;10712;52.944;9.098;2023-06-22T08:18:57;23.00;68.20
21108;DHT22;10712;52.944;9.098;2023-06-22T08:21:23;23.00;68.00
21108;DHT22;10712;52.944;9.098;2023-06-22T08:23:49;23.10;67.80
21108;DHT22;10712;52.944;9.098;2023-06-22T08:26:15;23.20;67.20
21108;DHT22;10712;52.944;9.098;2023-06-22T08:28:41;23.30;66.30
21108;DHT22;10712;52.944;9.098;2023-06-22T08:31:07;23.30;66.60
21108;DHT22;10712;52.944;9.098;2023-06-22T08:33:33;23.40;66.60
21108;DHT22;10712;52.944;9.098;2023-06-22T08:35:59;23.40;66.40
21108;DHT22;10712;52.944;9.098;2023-06-22T08:38:25;23.50;66.90
21108;DHT22;10712;52.944;9.098;2023-06-22T08:40:51;23.60;66.80
21108;DHT22;10712;52.944;9.098;2023-06-22T08:43:17;23.70;67.10
21108;DHT22;10712;52.944;9.098;2023-06-22T08:45:43;23.70;66.70
21108;DHT22;10712;52.944;9.098;2023-06-22T08:48:08;23.80;65.50
21108;DHT22;10712;52.944;9.098;2023-06-22T08:50:34;23.90;65.90
21108;DHT22;10712;52.944;9.098;2023-06-22T08:53:00;24.00;65.90
21108;DHT22;10712;52.944;9.098;2023-06-22T08:55:26;24.00;65.70
21108;DHT22;10712;52.944;9.098;2023-06-22T08:57:51;24.10;66.00
21108;DHT22;10712;52.944;9.098;2023-06-22T09:00:17;24.00;65.60
21108;DHT22;10712;52.944;9.098;2023-06-22T09:02:46;24.00;65.80
21108;DHT22;10712;52.944;9.098;2023-06-22T09:05:15;24.00;66.00
21108;DHT22;10712;52.944;9.098;2023-06-22T09:07:41;24.10;66.10
21108;DHT22;10712;52.944;9.098;2023-06-22T09:10:07;24.20;66.40
21108;DHT22;10712;52.944;9.098;2023-06-22T09:12:34;24.20;65.80
21108;DHT22;10712;52.944;9.098;2023-06-22T09:15:00;24.30;65.70
21108;DHT22;10712;52.944;9.098;2023-06-22T09:17:26;24.40;66.00
21108;DHT22;10712;52.944;9.098;2023-06-22T09:19:52;24.50;66.30
21108;DHT22;10712;52.944;9.098;2023-06-22T09:22:18;24.60;66.30
21108;DHT22;10712;52.944;9.098;2023-06-22T09:24:44;24.70;65.60
21108;DHT22;10712;52.944;9.098;2023-06-22T09:27:10;24.80;65.20
21108;DHT22;10712;52.944;9.098;2023-06-22T09:29:35;24.80;65.20
21108;DHT22;10712;52.944;9.098;2023-06-22T09:32:01;24.90;64.10
21108;DHT22;10712;52.944;9.098;2023-06-22T09:34:27;25.00;64.00
21108;DHT22;10712;52.944;9.098;2023-06-22T09:36:53;25.00;64.30
21108;DHT22;10712;52.944;9.098;2023-06-22T09:39:19;25.00;64.70
21108;DHT22;10712;52.944;9.098;2023-06-22T09:41:45;25.00;64.50
21108;DHT22;10712;52.944;9.098;2023-06-22T09:44:10;25.00;64.20
21108;DHT22;10712;52.944;9.098;2023-06-22T09:46:36;25.00;64.40
21108;DHT22;10712;52.944;9.098;2023-06-22T09:49:02;25.00;64.80
21108;DHT22;10712;52.944;9.098;2023-06-22T09:51:28;25.00;65.00
21108;DHT22;10712;52.944;9.098;2023-06-22T09:53:53;25.00;64.70
21108;DHT22;10712;52.944;9.098;2023-06-22T09:56:20;25.00;65.10
21108;DHT22;10712;52.944;9.098;2023-06-22T09:58:46;25.10;64.30
21108;DHT22;10712;52.944;9.098;2023-06-22T10:01:13;25.10;64.40
21108;DHT22;10712;52.944;9.098;2023-06-22T10:03:42;25.10;64.50
21108;DHT22;10712;52.944;9.098;2023-06-22T10:06:08;25.10;64.70
21108;DHT22;10712;52.944;9.098;2023-06-22T10:08:37;25.10;64.30
21108;DHT22;10712;52.944;9.098;2023-06-22T10:11:03;25.20;64.00
21108;DHT22;10712;52.944;9.098;2023-06-22T10:13:29;25.20;64.50
21108;DHT22;10712;52.944;9.098;2023-06-22T10:15:55;25.30;65.20
21108;DHT22;10712;52.944;9.098;2023-06-22T10:18:21;25.30;63.80
21108;DHT22;10712;52.944;9.098;2023-06-22T10:20:48;25.30;64.00
21108;DHT22;10712;52.944;9.098;2023-06-22T10:23:18;25.40;64.10
21108;DHT22;10712;52.944;9.098;2023-06-22T10:25:44;25.50;64.40
21108;DHT22;10712;52.944;9.098;2023-06-22T10:28:11;25.50;64.80
21108;DHT22;10712;52.944;9.098;2023-06-22T10:30:39;25.60;64.90
21108;DHT22;10712;52.944;9.098;2023-06-22T10:33:07;25.70;63.70
21108;DHT22;10712;52.944;9.098;2023-06-22T10:35:34;25.60;63.60
21108;DHT22;10712;52.944;9.098;2023-06-22T10:38:00;25.60;63.50
21108;DHT22;10712;52.944;9.098;2023-06-22T10:40:26;25.60;63.30
21108;DHT22;10712;52.944;9.098;2023-06-22T10:42:51;25.60;63.20
21108;DHT22;10712;52.944;9.098;2023-06-22T10:45:17;25.60;63.10
21108;DHT22;10712;52.944;9.098;2023-06-22T10:47:43;25.60;61.90
21108;DHT22;10712;52.944;9.098;2023-06-22T10:50:09;25.60;62.50
21108;DHT22;10712;52.944;9.098;2023-06-22T10:52:36;25.50;63.00
21108;DHT22;10712;52.944;9.098;2023-06-22T10:55:02;25.60;63.50
21108;DHT22;10712;52.944;9.098;2023-06-22T10:57:28;25.50;63.60
21108;DHT22;10712;52.944;9.098;2023-06-22T10:59:53;25.50;63.40
21108;DHT22;10712;52.944;9.098;2023-06-22T11:02:19;25.50;63.50
21108;DHT22;10712;52.944;9.098;2023-06-22T11:04:45;25.50;63.10
21108;DHT22;10712;52.944;9.098;2023-06-22T11:07:11;25.50;63.30
21108;DHT22;10712;52.944;9.098;2023-06-22T11:09:37;25.50;63.80
21108;DHT22;10712;52.944;9.098;2023-06-22T11:12:04;25.50;63.90
21108;DHT22;10712;52.944;9.098;2023-06-22T11:14:30;25.50;64.80
21108;DHT22;10712;52.944;9.098;2023-06-22T11:16:55;25.50;64.90
21108;DHT22;10712;52.944;9.098;2023-06-22T11:19:21;25.40;65.00
21108;DHT22;10712;52.944;9.098;2023-06-22T11:21:47;25.40;64.90
21108;DHT22;10712;52.944;9.098;2023-06-22T11:24:13;25.40;64.90
21108;DHT22;10712;52.944;9.098;2023-06-22T11:26:38;25.30;65.00
21108;DHT22;10712;52.944;9.098;2023-06-22T11:29:04;25.30;64.30
21108;DHT22;10712;52.944;9.098;2023-06-22T11:31:32;25.30;64.00
21108;DHT22;10712;52.944;9.098;2023-06-22T11:33:58;25.30;64.10
21108;DHT22;10712;52.944;9.098;2023-06-22T11:36:25;25.30;63.40
21108;DHT22;10712;52.944;9.098;2023-06-22T11:38:51;25.30;63.70
21108;DHT22;10712;52.944;9.098;2023-06-22T11:41:17;25.40;64.10
21108;DHT22;10712;52.944;9.098;2023-06-22T11:43:43;25.40;64.20
21108;DHT22;10712;52.944;9.098;2023-06-22T11:46:10;25.50;64.30
21108;DHT22;10712;52.944;9.098;2023-06-22T11:48:36;25.50;63.70
21108;DHT22;10712;52.944;9.098;2023-06-22T11:51:02;25.50;63.70
21108;DHT22;10712;52.944;9.098;2023-06-22T11:53:28;25.50;63.90
21108;DHT22;10712;52.944;9.098;2023-06-22T11:55:55;25.50;64.00
21108;DHT22;10712;52.944;9.098;2023-06-22T11:58:22;25.50;63.10
21108;DHT22;10712;52.944;9.098;2023-06-22T12:00:48;25.50;63.40
21108;DHT22;10712;52.944;9.098;2023-06-22T12:03:14;25.50;62.90
21108;DHT22;10712;52.944;9.098;2023-06-22T12:05:42;25.50;62.80
21108;DHT22;10712;52.944;9.098;2023-06-22T12:08:08;25.50;62.60
21108;DHT22;10712;52.944;9.098;2023-06-22T12:10:34;25.50;62.80
21108;DHT22;10712;52.944;9.098;2023-06-22T12:12:59;25.50;62.50
21108;DHT22;10712;52.944;9.098;2023-06-22T12:15:26;25.60;62.50
21108;DHT22;10712;52.944;9.098;2023-06-22T12:17:52;25.60;62.60
21108;DHT22;10712;52.944;9.098;2023-06-22T12:20:18;25.60;62.80
21108;DHT22;10712;52.944;9.098;2023-06-22T12:22:44;25.60;63.40
21108;DHT22;10712;52.944;9.098;2023-06-22T12:25:11;25.60;64.30
21108;DHT22;10712;52.944;9.098;2023-06-22T12:27:37;25.70;64.70
21108;DHT22;10712;52.944;9.098;2023-06-22T12:30:04;25.70;64.40
21108;DHT22;10712;52.944;9.098;2023-06-22T12:32:30;25.70;63.60
21108;DHT22;10712;52.944;9.098;2023-06-22T12:34:56;25.60;63.10
21108;DHT22;10712;52.944;9.098;2023-06-22T12:37:23;25.60;63.50
21108;DHT22;10712;52.944;9.098;2023-06-22T12:39:49;25.60;64.70
21108;DHT22;10712;52.944;9.098;2023-06-22T12:42:16;25.60;65.30
21108;DHT22;10712;52.944;9.098;2023-06-22T12:44:42;25.60;65.00
21108;DHT22;10712;52.944;9.098;2023-06-22T12:47:08;25.60;64.50
21108;DHT22;10712;52.944;9.098;2023-06-22T12:49:37;25.60;64.70
21108;DHT22;10712;52.944;9.098;2023-06-22T12:52:04;25.60;63.20
21108;DHT22;10712;52.944;9.098;2023-06-22T12:54:34;25.50;63.30
21108;DHT22;10712;52.944;9.098;2023-06-22T12:57:00;25.50;63.60
21108;DHT22;10712;52.944;9.098;2023-06-22T12:59:27;25.50;64.20
21108;DHT22;10712;52.944;9.098;2023-06-22T13:01:52;25.50;64.50
21108;DHT22;10712;52.944;9.098;2023-06-22T13:04:18;25.50;64.50
21108;DHT22;10712;52.944;9.098;2023-06-22T13:06:47;25.50;65.00
21108;DHT22;10712;52.944;9.098;2023-06-22T13:09:17;25.50;64.80
21108;DHT22;10712;52.944;9.098;2023-06-22T13:11:44;25.50;65.20
21108;DHT22;10712;52.944;9.098;2023-06-22T13:14:10;25.50;65.70
21108;DHT22;10712;52.944;9.098;2023-06-22T13:16:35;25.60;65.70
21108;DHT22;10712;52.944;9.098;2023-06-22T13:19:01;25.70;64.70
21108;DHT22;10712;52.944;9.098;2023-06-22T13:21:27;25.70;64.00
21108;DHT22;10712;52.944;9.098;2023-06-22T13:23:56;25.80;64.70
21108;DHT22;10712;52.944;9.098;2023-06-22T13:26:30;25.80;64.20
21108;DHT22;10712;52.944;9.098;2023-06-22T13:29:26;25.80;64.00
21108;DHT22;10712;52.944;9.098;2023-06-22T13:31:56;25.70;64.10
21108;DHT22;10712;52.944;9.098;2023-06-22T13:34:26;25.70;64.00
21108;DHT22;10712;52.944;9.098;2023-06-22T13:36:53;25.70;63.50
21108;DHT22;10712;52.944;9.098;2023-06-22T13:39:19;25.60;64.50
21108;DHT22;10712;52.944;9.098;2023-06-22T13:41:46;25.60;64.80
21108;DHT22;10712;52.944;9.098;2023-06-22T13:44:25;25.50;65.30
21108;DHT22;10712;52.944;9.098;2023-06-22T13:46:57;25.50;65.30
21108;DHT22;10712;52.944;9.098;2023-06-22T13:49:26;25.50;65.60
21108;DHT22;10712;52.944;9.098;2023-06-22T13:51:56;25.50;65.80
21108;DHT22;10712;52.944;9.098;2023-06-22T13:54:27;25.40;65.70
21108;DHT22;10712;52.944;9.098;2023-06-22T13:56:57;25.40;65.80
21108;DHT22;10712;52.944;9.098;2023-06-22T13:59:24;25.40;65.40
21108;DHT22;10712;52.944;9.098;2023-06-22T14:01:54;25.40;66.20
21108;DHT22;10712;52.944;9.098;2023-06-22T14:04:24;25.30;66.20
21108;DHT22;10712;52.944;9.098;2023-06-22T14:06:50;25.30;66.50
21108;DHT22;10712;52.944;9.098;2023-06-22T14:09:17;25.30;66.80
21108;DHT22;10712;52.944;9.098;2023-06-22T14:11:43;25.30;66.90
21108;DHT22;10712;52.944;9.098;2023-06-22T14:14:09;25.20;66.40
21108;DHT22;10712;52.944;9.098;2023-06-22T14:16:36;25.20;66.60
21108;DHT22;10712;52.944;9.098;2023-06-22T14:19:02;25.20;66.40
21108;DHT22;10712;52.944;9.098;2023-06-22T14:21:28;25.10;66.40
21108;DHT22;10712;52.944;9.098;2023-06-22T14:23:54;25.10;66.20
21108;DHT22;10712;52.944;9.098;2023-06-22T14:26:21;25.00;66.20
21108;DHT22;10712;52.944;9.098;2023-06-22T14:28:48;25.00;66.50
21108;DHT22;10712;52.944;9.098;2023-06-22T14:31:19;24.90;66.90
21108;DHT22;10712;52.944;9.098;2023-06-22T14:33:49;24.90;66.80
21108;DHT22;10712;52.944;9.098;2023-06-22T14:36:18;24.80;66.80
21108;DHT22;10712;52.944;9.098;2023-06-22T14:38:45;24.80;67.10
21108;DHT22;10712;52.944;9.098;2023-06-22T14:41:12;24.70;67.00
21108;DHT22;10712;52.944;9.098;2023-06-22T14:43:38;24.70;67.30
21108;DHT22;10712;52.944;9.098;2023-06-22T14:46:04;24.60;67.80
21108;DHT22;10712;52.944;9.098;2023-06-22T14:48:30;24.60;68.00
21108;DHT22;10712;52.944;9.098;2023-06-22T14:50:57;24.60;68.60
21108;DHT22;10712;52.944;9.098;2023-06-22T14:53:23;24.60;68.90
21108;DHT22;10712;52.944;9.098;2023-06-22T14:55:49;24.50;69.70
21108;DHT22;10712;52.944;9.098;2023-06-22T14:58:15;24.50;70.40
21108;DHT22;10712;52.944;9.098;2023-06-22T15:00:41;24.40;71.20
21108;DHT22;10712;52.944;9.098;2023-06-22T15:03:06;24.40;72.30
21108;DHT22;10712;52.944;9.098;2023-06-22T15:05:36;24.30;73.20
21108;DHT22;10712;52.944;9.098;2023-06-22T15:08:02;24.20;74.20
21108;DHT22;10712;52.944;9.098;2023-06-22T15:10:33;24.20;75.20
21108;DHT22;10712;52.944;9.098;2023-06-22T15:12:59;24.00;76.40
21108;DHT22;10712;52.944;9.098;2023-06-22T15:15:26;23.90;77.60
21108;DHT22;10712;52.944;9.098;2023-06-22T15:17:53;23.80;78.60
21108;DHT22;10712;52.944;9.098;2023-06-22T15:20:20;23.60;79.90
21108;DHT22;10712;52.944;9.098;2023-06-22T15:22:47;23.30;80.80
21108;DHT22;10712;52.944;9.098;2023-06-22T15:25:13;23.00;81.30
21108;DHT22;10712;52.944;9.098;2023-06-22T15:27:39;22.90;82.20
21108;DHT22;10712;52.944;9.098;2023-06-22T15:30:05;22.70;83.00
21108;DHT22;10712;52.944;9.098;2023-06-22T15:32:32;22.60;83.80